createdAt,value
2023-03-13T00:01:29.153Z,15.05
2023-03-13T00:03:56.308Z,15.09
2023-03-13T00:06:26.281Z,15.11
2023-03-13T00:08:54.545Z,15.11
2023-03-13T00:11:21.329Z,15.12
2023-03-13T00:13:48.182Z,15.13
2023-03-13T00:16:16.929Z,15.14
2023-03-13T00:18:50.060Z,15.12
2023-03-13T00:21:20.250Z,15.10
2023-03-13T00:23:47.957Z,15.06
2023-03-13T00:26:19.139Z,15.07
2023-03-13T00:28:46.485Z,15.05
2023-03-13T00:31:17.612Z,15.01
2023-03-13T00:33:48.489Z,15.00
2023-03-13T00:36:23.970Z,14.99
2023-03-13T00:38:52.646Z,14.98
2023-03-13T00:41:31.738Z,14.98
2023-03-13T00:43:58.958Z,14.97
2023-03-13T00:46:29.581Z,14.96
2023-03-13T00:48:57.578Z,14.97
2023-03-13T00:51:26.928Z,14.97
2023-03-13T00:53:55.796Z,14.96
2023-03-13T00:56:23.199Z,14.96
2023-03-13T00:58:51.024Z,14.96
2023-03-13T01:01:24.759Z,14.96
2023-03-13T01:03:58.060Z,14.96
2023-03-13T01:06:28.724Z,14.94
2023-03-13T01:08:56.639Z,14.96
2023-03-13T01:11:30.309Z,14.97
2023-03-13T01:14:01.552Z,14.97
2023-03-13T01:16:31.681Z,14.97
2023-03-13T01:19:05.879Z,14.97
2023-03-13T01:21:32.994Z,14.97
2023-03-13T01:23:59.941Z,15.00
2023-03-13T01:26:27.715Z,15.03
2023-03-13T01:28:55.093Z,15.05
2023-03-13T01:31:29.487Z,15.07
2023-03-13T01:33:59.506Z,15.08
2023-03-13T01:36:27.848Z,15.07
2023-03-13T01:38:58.165Z,15.06
2023-03-13T01:41:26.641Z,15.08
2023-03-13T01:43:55.361Z,15.07
2023-03-13T01:46:25.127Z,15.10
2023-03-13T01:49:05.103Z,15.09
2023-03-13T01:51:44.033Z,15.09
2023-03-13T01:54:52.292Z,15.06
2023-03-13T01:57:33.075Z,14.99
2023-03-13T02:00:17.649Z,14.96
2023-03-13T02:02:50.390Z,14.92
2023-03-13T02:05:21.263Z,14.88
2023-03-13T02:07:56.869Z,14.87
2023-03-13T02:10:25.554Z,14.84
2023-03-13T02:12:53.771Z,14.81
2023-03-13T02:15:24.682Z,14.80
2023-03-13T02:17:52.396Z,14.77
2023-03-13T02:20:24.144Z,14.76
2023-03-13T02:23:14.220Z,14.75
2023-03-13T02:25:50.943Z,14.74
2023-03-13T02:28:28.573Z,14.76
2023-03-13T02:30:58.500Z,14.77
2023-03-13T02:33:35.389Z,14.77
2023-03-13T02:36:04.261Z,14.77
2023-03-13T02:38:39.160Z,14.79
2023-03-13T02:41:07.179Z,14.80
2023-03-13T02:43:36.994Z,14.81
2023-03-13T02:46:14.029Z,14.82
2023-03-13T02:48:45.764Z,14.82
2023-03-13T02:51:41.440Z,14.83
2023-03-13T02:54:17.921Z,14.83
2023-03-13T02:56:49.205Z,14.86
2023-03-13T02:59:16.302Z,14.87
2023-03-13T03:01:43.045Z,14.92
2023-03-13T03:04:09.818Z,14.92
2023-03-13T03:06:37.141Z,14.93
2023-03-13T03:09:04.740Z,14.96
2023-03-13T03:11:31.438Z,14.97
2023-03-13T03:13:58.186Z,14.98
2023-03-13T03:16:24.916Z,15.00
2023-03-13T03:18:51.701Z,15.02
2023-03-13T03:21:18.452Z,15.05
2023-03-13T03:23:45.154Z,15.08
2023-03-13T03:26:11.949Z,15.12
2023-03-13T03:28:38.664Z,15.14
2023-03-13T03:31:08.204Z,15.17
2023-03-13T03:33:35.203Z,15.20
2023-03-13T03:36:06.590Z,15.22
2023-03-13T03:38:34.223Z,15.26
2023-03-13T03:41:01.599Z,15.28
2023-03-13T03:43:28.403Z,15.32
2023-03-13T03:45:55.341Z,15.34
2023-03-13T03:48:22.103Z,15.37
2023-03-13T03:50:48.906Z,15.39
2023-03-13T03:53:15.795Z,15.42
2023-03-13T03:55:42.690Z,15.44
2023-03-13T03:58:09.417Z,15.47
2023-03-13T04:00:36.152Z,15.49
2023-03-13T04:03:02.982Z,15.50
2023-03-13T04:05:30.049Z,15.53
2023-03-13T04:07:56.815Z,15.54
2023-03-13T04:10:23.584Z,15.57
2023-03-13T04:12:50.338Z,15.57
2023-03-13T04:15:17.231Z,15.60
2023-03-13T04:17:43.973Z,15.62
2023-03-13T04:20:13.551Z,15.66
2023-03-13T04:22:42.116Z,15.69
2023-03-13T04:25:09.960Z,15.72
2023-03-13T04:27:37.141Z,15.75
2023-03-13T04:30:04.879Z,15.78
2023-03-13T04:32:31.726Z,15.83
2023-03-13T04:34:58.825Z,15.85
2023-03-13T04:37:25.777Z,15.90
2023-03-13T04:39:52.534Z,15.92
2023-03-13T04:42:19.343Z,15.95
2023-03-13T04:44:46.055Z,16.00
2023-03-13T04:47:12.858Z,16.03
2023-03-13T04:49:39.668Z,16.03
2023-03-13T04:52:07.133Z,16.06
2023-03-13T04:54:33.885Z,16.55
2023-03-13T04:57:00.704Z,16.43
2023-03-13T04:59:27.808Z,16.34
2023-03-13T05:01:54.532Z,16.31
2023-03-13T05:04:21.354Z,16.28
2023-03-13T05:06:48.249Z,16.27
2023-03-13T05:09:14.981Z,16.29
2023-03-13T05:11:42.310Z,16.30
2023-03-13T05:14:11.758Z,16.32
2023-03-13T05:16:39.234Z,16.33
2023-03-13T05:19:06.076Z,16.33
2023-03-13T05:21:32.923Z,16.34
2023-03-13T05:23:59.696Z,16.34
2023-03-13T05:26:26.453Z,16.34
2023-03-13T05:28:53.251Z,16.34
2023-03-13T05:31:20.205Z,16.34
2023-03-13T05:33:47.015Z,16.32
2023-03-13T05:36:13.705Z,16.32
2023-03-13T05:38:40.523Z,16.31
2023-03-13T05:41:07.248Z,16.30
2023-03-13T05:43:33.990Z,16.29
2023-03-13T05:46:00.809Z,16.29
2023-03-13T05:48:27.602Z,16.28
2023-03-13T05:50:54.351Z,16.29
2023-03-13T05:53:21.117Z,16.30
2023-03-13T05:55:47.860Z,16.31
2023-03-13T05:58:14.598Z,16.35
2023-03-13T06:00:43.568Z,16.39
2023-03-13T06:03:12.497Z,16.42
2023-03-13T06:05:40.669Z,16.46
2023-03-13T06:08:07.383Z,16.49
2023-03-13T06:10:34.104Z,16.53
2023-03-13T06:13:13.728Z,16.56
2023-03-13T06:15:53.631Z,16.57
2023-03-13T06:18:20.482Z,16.59
2023-03-13T06:20:49.794Z,16.62
2023-03-13T06:23:17.226Z,16.65
2023-03-13T06:25:48.416Z,16.67
2023-03-13T06:28:16.036Z,16.70
2023-03-13T06:30:43.421Z,16.71
2023-03-13T06:33:10.512Z,16.74
2023-03-13T06:35:55.143Z,16.75
2023-03-13T06:38:24.889Z,16.78
2023-03-13T06:40:51.716Z,16.81
2023-03-13T06:43:19.242Z,16.82
2023-03-13T06:45:46.603Z,16.84
2023-03-13T06:48:13.759Z,16.87
2023-03-13T06:50:42.150Z,16.87
2023-03-13T06:53:20.369Z,16.87
2023-03-13T06:55:49.081Z,16.89
2023-03-13T06:58:31.133Z,16.89
2023-03-13T07:01:00.897Z,16.88
2023-03-13T07:03:27.698Z,16.89
2023-03-13T07:05:58.964Z,16.91
2023-03-13T07:08:27.252Z,16.90
2023-03-13T07:11:09.136Z,16.93
2023-03-13T07:13:37.016Z,16.93
2023-03-13T07:16:13.722Z,16.98
2023-03-13T07:18:44.895Z,17.03
2023-03-13T07:21:13.350Z,17.09
2023-03-13T07:23:40.705Z,17.15
2023-03-13T07:26:12.864Z,17.22
2023-03-13T07:28:40.016Z,17.26
2023-03-13T07:31:20.800Z,17.31
2023-03-13T07:33:48.752Z,17.34
2023-03-13T07:36:16.525Z,17.40
2023-03-13T07:38:43.793Z,17.46
2023-03-13T07:41:15.709Z,17.51
2023-03-13T07:43:42.499Z,17.55
2023-03-13T07:46:14.210Z,17.60
2023-03-13T07:48:43.255Z,17.62
2023-03-13T07:51:30.286Z,17.64
2023-03-13T07:54:03.886Z,17.63
2023-03-13T07:56:30.740Z,17.62
2023-03-13T07:58:57.470Z,17.63
2023-03-13T08:01:30.449Z,17.64
2023-03-13T08:03:58.845Z,17.63
2023-03-13T08:06:29.352Z,17.62
2023-03-13T08:08:59.779Z,17.65
2023-03-13T08:11:28.772Z,17.70
2023-03-13T08:13:57.474Z,17.74
2023-03-13T08:16:31.779Z,17.79
2023-03-13T08:19:00.389Z,17.81
2023-03-13T08:21:35.535Z,17.86
2023-03-13T08:24:06.971Z,17.86
2023-03-13T08:26:36.898Z,17.85
2023-03-13T08:29:13.601Z,17.84
2023-03-13T08:31:49.231Z,17.81
2023-03-13T08:34:18.585Z,17.75
2023-03-13T08:36:46.042Z,17.73
2023-03-13T08:39:17.948Z,17.68
2023-03-13T08:41:45.107Z,17.64
2023-03-13T08:44:15.867Z,17.63
2023-03-13T08:46:44.032Z,17.62
2023-03-13T08:49:12.154Z,17.59
2023-03-13T08:51:39.551Z,17.57
2023-03-13T08:54:06.568Z,17.60
2023-03-13T08:56:34.786Z,17.64
2023-03-13T08:59:05.178Z,17.70
2023-03-13T09:01:35.258Z,17.70
2023-03-13T09:04:04.743Z,17.73
2023-03-13T09:06:34.172Z,17.73
2023-03-13T09:09:01.787Z,17.76
2023-03-13T09:11:28.709Z,17.82
2023-03-13T09:13:59.237Z,17.98
2023-03-13T09:16:29.745Z,18.27
2023-03-13T09:18:57.917Z,18.64
2023-03-13T09:21:29.157Z,19.22
2023-03-13T09:23:57.238Z,19.99
2023-03-13T09:26:24.633Z,20.84
2023-03-13T09:28:55.594Z,21.37
2023-03-13T09:31:31.222Z,21.62
2023-03-13T09:33:58.744Z,21.86
2023-03-13T09:36:26.731Z,22.05
2023-03-13T09:38:57.533Z,22.10
2023-03-13T09:41:33.964Z,22.06
2023-03-13T09:44:31.765Z,22.03
2023-03-13T09:47:42.958Z,21.97
2023-03-13T09:50:25.411Z,22.12
2023-03-13T09:53:01.432Z,22.54
2023-03-13T09:55:34.782Z,23.09
2023-03-13T09:58:24.461Z,23.65
2023-03-13T10:01:02.477Z,24.20
2023-03-13T10:03:44.656Z,24.70
2023-03-13T10:06:21.141Z,25.13
2023-03-13T10:08:47.925Z,25.36
2023-03-13T10:11:29.502Z,25.62
2023-03-13T10:14:09.701Z,25.73
2023-03-13T10:17:11.728Z,25.90
2023-03-13T10:19:43.473Z,26.15
2023-03-13T10:22:24.237Z,26.50
2023-03-13T10:25:24.576Z,26.70
2023-03-13T10:27:51.681Z,26.88
2023-03-13T10:30:39.425Z,26.96
2023-03-13T10:33:11.885Z,26.99
2023-03-13T10:35:43.581Z,27.04
2023-03-13T10:38:28.545Z,27.04
2023-03-13T10:41:03.113Z,27.07
2023-03-13T10:43:30.165Z,27.18
2023-03-13T10:45:56.905Z,27.35
2023-03-13T10:48:30.361Z,27.39
2023-03-13T10:50:57.630Z,27.24
2023-03-13T10:53:30.507Z,27.05
2023-03-13T10:56:15.822Z,26.90
2023-03-13T10:58:47.048Z,26.77
2023-03-13T11:01:31.854Z,26.50
2023-03-13T11:04:02.212Z,26.28
2023-03-13T11:06:35.149Z,26.07
2023-03-13T11:09:16.476Z,25.76
2023-03-13T11:12:06.822Z,25.51
2023-03-13T11:14:34.882Z,25.44
2023-03-13T11:17:31.961Z,25.41
2023-03-13T11:20:06.119Z,25.47
2023-03-13T11:22:47.850Z,25.43
2023-03-13T11:25:22.929Z,25.33
2023-03-13T11:28:17.185Z,25.23
2023-03-13T11:31:01.899Z,25.13
2023-03-13T11:33:53.341Z,25.10
2023-03-13T11:36:41.197Z,25.12
2023-03-13T11:39:41.855Z,25.19
2023-03-13T11:42:36.035Z,25.31
2023-03-13T11:45:55.451Z,25.22
2023-03-13T11:49:11.442Z,24.96
2023-03-13T11:52:04.802Z,24.68
2023-03-13T11:55:02.692Z,24.45
2023-03-13T11:57:37.815Z,24.28
2023-03-13T12:00:23.014Z,24.19
2023-03-13T12:03:23.046Z,24.14
2023-03-13T12:05:55.388Z,24.15
2023-03-13T12:08:32.259Z,24.20
2023-03-13T12:11:20.197Z,24.22
2023-03-13T12:14:13.519Z,24.28
2023-03-13T12:16:52.372Z,24.33
2023-03-13T12:19:40.945Z,24.39
2023-03-13T12:22:20.839Z,24.38
2023-03-13T12:25:05.113Z,24.36
2023-03-13T12:27:47.019Z,24.32
2023-03-13T12:30:52.565Z,24.25
2023-03-13T12:33:37.855Z,24.21
2023-03-13T12:36:29.322Z,24.11
2023-03-13T12:39:20.703Z,24.01
2023-03-13T12:42:09.158Z,23.87
2023-03-13T12:44:36.336Z,23.74
2023-03-13T12:47:45.668Z,23.60
2023-03-13T12:50:45.070Z,23.48
2023-03-13T12:53:55.339Z,23.34
2023-03-13T12:56:36.046Z,23.22
2023-03-13T12:59:23.080Z,23.08
2023-03-13T13:01:54.878Z,23.00
2023-03-13T13:04:27.800Z,22.92
2023-03-13T13:07:07.343Z,22.80
2023-03-13T13:09:39.652Z,22.73
2023-03-13T13:12:25.152Z,22.68
2023-03-13T13:14:51.986Z,22.68
2023-03-13T13:17:46.244Z,22.70
2023-03-13T13:20:37.567Z,22.69
2023-03-13T13:23:33.990Z,22.63
2023-03-13T13:26:33.776Z,22.55
2023-03-13T13:29:22.285Z,22.49
2023-03-13T13:31:51.926Z,22.43
2023-03-13T13:34:30.862Z,22.36
2023-03-13T13:37:23.502Z,22.28
2023-03-13T13:39:53.730Z,22.29
2023-03-13T13:42:45.463Z,22.29
2023-03-13T13:45:14.942Z,22.24
2023-03-13T13:47:48.834Z,22.18
2023-03-13T13:50:28.064Z,22.11
2023-03-13T13:53:31.076Z,22.06
2023-03-13T13:55:58.683Z,22.07
2023-03-13T13:58:30.901Z,22.10
2023-03-13T14:01:04.260Z,22.14
2023-03-13T14:03:33.260Z,22.19
2023-03-13T14:06:19.376Z,22.20
2023-03-13T14:08:54.253Z,22.19
2023-03-13T14:11:34.133Z,22.11
2023-03-13T14:14:15.703Z,22.01
2023-03-13T14:16:52.230Z,21.93
2023-03-13T14:19:33.962Z,21.80
2023-03-13T14:22:07.567Z,21.74
2023-03-13T14:24:35.648Z,21.66
2023-03-13T14:27:15.080Z,21.56
2023-03-13T14:29:41.878Z,21.46
2023-03-13T14:32:09.078Z,21.39
2023-03-13T14:34:35.972Z,21.36
2023-03-13T14:37:17.719Z,21.32
2023-03-13T14:39:48.554Z,21.20
2023-03-13T14:42:18.162Z,21.13
2023-03-13T14:44:49.587Z,21.07
2023-03-13T14:47:31.697Z,20.93
2023-03-13T14:50:11.850Z,20.80
2023-03-13T14:52:46.261Z,20.71
2023-03-13T14:55:22.190Z,20.64
2023-03-13T14:58:00.925Z,20.57
2023-03-13T15:00:38.024Z,20.55
2023-03-13T15:03:17.114Z,20.53
2023-03-13T15:05:47.193Z,20.52
2023-03-13T15:08:21.579Z,20.52
2023-03-13T15:10:49.789Z,20.51
2023-03-13T15:13:37.012Z,20.49
2023-03-13T15:16:20.027Z,20.45
2023-03-13T15:18:48.174Z,20.42
2023-03-13T15:21:15.347Z,20.41
2023-03-13T15:23:43.183Z,20.40
2023-03-13T15:26:10.663Z,20.40
2023-03-13T15:28:37.374Z,20.39
2023-03-13T15:31:04.427Z,20.38
2023-03-13T15:33:31.531Z,20.39
2023-03-13T15:35:58.414Z,20.39
2023-03-13T15:38:27.842Z,20.39
2023-03-13T15:40:54.951Z,20.36
2023-03-13T15:43:23.492Z,20.36
2023-03-13T15:45:51.960Z,20.37
2023-03-13T15:48:26.076Z,20.35
2023-03-13T15:50:58.393Z,20.32
2023-03-13T15:53:36.688Z,20.30
2023-03-13T15:56:18.358Z,20.25
2023-03-13T15:58:47.113Z,20.20
2023-03-13T16:01:16.760Z,20.16
2023-03-13T16:03:43.855Z,20.11
2023-03-13T16:06:21.288Z,20.03
2023-03-13T16:08:48.120Z,19.93
2023-03-13T16:11:17.091Z,19.86
2023-03-13T16:13:44.133Z,19.78
2023-03-13T16:16:24.607Z,19.70
2023-03-13T16:18:52.800Z,19.60
2023-03-13T16:21:24.151Z,19.52
2023-03-13T16:23:50.946Z,19.43
2023-03-13T16:26:27.694Z,19.38
2023-03-13T16:28:55.396Z,19.28
2023-03-13T16:31:29.198Z,19.23
2023-03-13T16:33:57.762Z,19.15
2023-03-13T16:36:31.614Z,19.10
2023-03-13T16:39:01.003Z,19.03
2023-03-13T16:41:29.135Z,18.98
2023-03-13T16:43:56.993Z,18.91
2023-03-13T16:46:29.930Z,18.86
2023-03-13T16:48:58.381Z,18.80
2023-03-13T16:51:27.585Z,18.76
2023-03-13T16:53:56.589Z,18.72
2023-03-13T16:56:35.204Z,18.67
2023-03-13T16:59:14.177Z,18.63
2023-03-13T17:01:40.937Z,18.60
2023-03-13T17:04:08.040Z,18.58
2023-03-13T17:06:42.392Z,18.56
2023-03-13T17:09:16.728Z,18.54
2023-03-13T17:11:44.221Z,18.52
2023-03-13T17:14:11.341Z,18.49
2023-03-13T17:16:46.057Z,18.47
2023-03-13T17:19:16.944Z,18.46
2023-03-13T17:21:44.022Z,18.39
2023-03-13T17:24:10.896Z,18.37
2023-03-13T17:26:39.639Z,18.38
2023-03-13T17:29:12.353Z,18.34
2023-03-13T17:31:39.784Z,18.31
2023-03-13T17:34:08.411Z,18.30
2023-03-13T17:36:36.143Z,18.27
2023-03-13T17:39:06.505Z,18.24
2023-03-13T17:41:35.053Z,18.21
2023-03-13T17:44:03.640Z,18.16
2023-03-13T17:46:33.929Z,18.11
2023-03-13T17:49:01.324Z,18.05
2023-03-13T17:51:31.700Z,18.03
2023-03-13T17:53:59.429Z,18.25
2023-03-13T17:56:36.271Z,18.15
2023-03-13T17:59:04.299Z,18.02
2023-03-13T18:01:33.731Z,17.93
2023-03-13T18:04:01.267Z,17.88
2023-03-13T18:06:31.810Z,17.85
2023-03-13T18:09:07.740Z,17.81
2023-03-13T18:11:38.718Z,17.76
2023-03-13T18:14:06.398Z,17.75
2023-03-13T18:16:47.562Z,17.73
2023-03-13T18:19:16.139Z,17.70
2023-03-13T18:21:44.851Z,17.68
2023-03-13T18:24:13.398Z,17.67
2023-03-13T18:26:42.898Z,17.65
2023-03-13T18:29:26.500Z,17.62
2023-03-13T18:31:55.767Z,17.60
2023-03-13T18:34:24.698Z,17.57
2023-03-13T18:36:52.074Z,17.55
2023-03-13T18:39:20.113Z,17.54
2023-03-13T18:41:49.021Z,17.53
2023-03-13T18:44:18.819Z,17.53
2023-03-13T18:46:45.853Z,17.49
2023-03-13T18:49:23.341Z,17.47
2023-03-13T18:51:52.936Z,17.45
2023-03-13T18:54:20.339Z,17.41
2023-03-13T18:56:47.843Z,17.39
2023-03-13T18:59:20.800Z,17.38
2023-03-13T19:01:48.587Z,17.34
2023-03-13T19:04:16.402Z,17.30
2023-03-13T19:06:45.750Z,17.28
2023-03-13T19:09:42.290Z,17.25
2023-03-13T19:12:10.910Z,17.20
2023-03-13T19:14:37.725Z,17.18
2023-03-13T19:17:12.047Z,17.15
2023-03-13T19:19:38.816Z,17.12
2023-03-13T19:22:05.528Z,17.10
2023-03-13T19:24:32.266Z,17.06
2023-03-13T19:26:59.830Z,17.04
2023-03-13T19:29:28.778Z,17.01
2023-03-13T19:31:55.998Z,16.97
2023-03-13T19:34:22.860Z,16.93
2023-03-13T19:36:50.257Z,16.89
2023-03-13T19:39:23.519Z,16.87
2023-03-13T19:41:51.798Z,16.82
2023-03-13T19:44:20.417Z,16.78
2023-03-13T19:46:47.938Z,16.75
2023-03-13T19:49:19.119Z,16.71
2023-03-13T19:51:46.803Z,16.68
2023-03-13T19:54:14.227Z,16.63
2023-03-13T19:56:44.194Z,16.59
2023-03-13T19:59:19.915Z,16.57
2023-03-13T20:01:47.040Z,16.52
2023-03-13T20:04:14.637Z,16.48
2023-03-13T20:06:43.284Z,16.44
2023-03-13T20:09:14.777Z,16.42
2023-03-13T20:11:41.543Z,16.37
2023-03-13T20:14:09.537Z,16.34
2023-03-13T20:16:37.344Z,16.29
2023-03-13T20:19:04.443Z,16.25
2023-03-13T20:21:36.230Z,16.22
2023-03-13T20:24:03.464Z,16.18
2023-03-13T20:26:30.612Z,16.13
2023-03-13T20:28:57.765Z,16.10
2023-03-13T20:31:31.545Z,16.07
2023-03-13T20:33:59.152Z,16.03
2023-03-13T20:36:26.751Z,15.99
2023-03-13T20:38:53.810Z,15.97
2023-03-13T20:41:24.570Z,15.95
2023-03-13T20:43:52.242Z,15.93
2023-03-13T20:46:19.607Z,15.89
2023-03-13T20:48:46.380Z,15.87
2023-03-13T20:51:13.269Z,15.84
2023-03-13T20:53:42.065Z,15.80
2023-03-13T20:56:10.756Z,15.76
2023-03-13T20:58:38.235Z,15.74
2023-03-13T21:01:07.128Z,15.72
2023-03-13T21:03:35.777Z,15.69
2023-03-13T21:06:15.406Z,15.66
2023-03-13T21:08:43.722Z,15.63
2023-03-13T21:11:20.087Z,15.62
2023-03-13T21:13:47.747Z,15.57
2023-03-13T21:16:16.364Z,15.56
2023-03-13T21:18:43.366Z,15.54
2023-03-13T21:21:16.940Z,15.52
2023-03-13T21:23:44.651Z,15.49
2023-03-13T21:26:11.854Z,15.47
2023-03-13T21:28:40.126Z,15.46
2023-03-13T21:31:19.161Z,15.45
2023-03-13T21:33:47.198Z,15.42
2023-03-13T21:36:17.703Z,15.40
2023-03-13T21:38:44.947Z,15.39
2023-03-13T21:41:15.710Z,15.38
2023-03-13T21:43:43.254Z,15.37
2023-03-13T21:46:18.174Z,15.36
2023-03-13T21:51:12.784Z,15.33
2023-03-13T21:53:41.905Z,15.32
2023-03-13T21:56:09.302Z,15.31
2023-03-13T21:58:36.030Z,15.30
2023-03-13T22:01:02.784Z,15.28
2023-03-13T22:03:31.679Z,15.28
2023-03-13T22:05:58.570Z,15.26
2023-03-13T22:08:25.359Z,15.26
2023-03-13T22:10:54.945Z,15.25
2023-03-13T22:13:22.103Z,15.22
2023-03-13T22:15:50.388Z,15.23
2023-03-13T22:18:17.660Z,15.21
2023-03-13T22:20:44.685Z,15.21
2023-03-13T22:23:12.528Z,15.19
2023-03-13T22:25:42.222Z,15.19
2023-03-13T22:28:11.070Z,15.16
2023-03-13T22:30:39.392Z,15.16
2023-03-13T22:33:07.878Z,15.16
2023-03-13T22:35:37.487Z,15.17
2023-03-13T22:38:05.018Z,15.16
2023-03-13T22:40:32.684Z,15.16
2023-03-13T22:42:59.592Z,15.17
2023-03-13T22:45:26.513Z,15.15
2023-03-13T22:47:53.439Z,15.13
2023-03-13T22:50:25.468Z,15.14
2023-03-13T22:52:53.495Z,15.13
2023-03-13T22:55:20.416Z,15.14
2023-03-13T22:57:47.134Z,15.15
2023-03-13T23:00:14.764Z,15.18
2023-03-13T23:02:41.501Z,15.23
2023-03-13T23:05:08.891Z,15.26
2023-03-13T23:07:38.616Z,15.31
2023-03-13T23:10:07.352Z,15.35
2023-03-13T23:12:34.402Z,15.39
2023-03-13T23:15:01.983Z,15.42
2023-03-13T23:17:34.061Z,15.44
2023-03-13T23:20:01.188Z,15.47
2023-03-13T23:22:32.671Z,15.49
2023-03-13T23:24:59.512Z,15.52
2023-03-13T23:27:27.046Z,15.53
2023-03-13T23:29:54.150Z,15.55
2023-03-13T23:32:20.914Z,15.55
2023-03-13T23:34:47.637Z,15.55
2023-03-13T23:37:14.359Z,15.54
2023-03-13T23:39:41.118Z,15.54
2023-03-13T23:42:08.135Z,15.51
2023-03-13T23:44:34.924Z,15.49
2023-03-13T23:47:01.684Z,15.47
2023-03-13T23:49:28.501Z,15.45
2023-03-13T23:51:55.204Z,15.46
2023-03-13T23:54:23.065Z,15.43
2023-03-13T23:56:49.840Z,15.43
2023-03-13T23:59:16.599Z,15.42
